Time;durP1;ratioP1;P1;durP2;ratioP2;P2;SDS_P1;SDS_P2;PMS_P1;PMS_P2;Temp;Humidity;BMP_temperature;BMP_pressure;BME280_temperature;BME280_humidity;BME280_pressure;Samples;Min_cycle;Max_cycle;Signal;HPM_P1;HPM_P2
2021/09/01 00:01:46;;;;;;;17.57;15.00;;;11.30;99.90;;;10.02;100.00;98732.28;4969428;28;20532;-78
2021/09/01 00:04:13;;;;;;;16.90;15.20;;;11.30;99.90;;;10.13;100.00;98747.97;4963092;28;20549;-78
2021/09/01 00:06:40;;;;;;;17.60;15.67;;;11.20;99.90;;;10.23;100.00;98762.97;4976822;28;20484;-78
2021/09/01 00:09:08;;;;;;;17.67;15.80;;;11.30;99.90;;;9.59;100.00;98666.50;4968444;28;20454;-78
2021/09/01 00:11:36;;;;;;;18.90;15.67;;;11.30;99.90;;;10.28;100.00;98755.16;4942745;28;20464;-79
2021/09/01 00:14:03;;;;;;;18.70;15.97;;;11.30;99.90;;;10.21;100.00;98753.22;4972792;28;20486;-78
2021/09/01 00:16:31;;;;;;;16.17;14.60;;;11.40;99.90;;;10.19;100.00;98762.56;4957993;28;20548;-78
2021/09/01 00:19:10;;;;;;;17.20;15.40;;;11.30;99.90;;;10.30;100.00;98747.69;4981358;28;20474;-78
2021/09/01 00:21:41;;;;;;;18.07;16.27;;;11.50;99.90;;;10.25;100.00;98756.38;4973855;28;20464;-78
2021/09/01 00:24:08;;;;;;;19.00;15.90;;;11.40;99.90;;;10.21;100.00;98761.31;4971300;28;20461;-78
2021/09/01 00:26:36;;;;;;;17.53;15.63;;;11.40;99.90;;;10.18;100.00;98761.72;4955384;28;21025;-80
2021/09/01 00:29:04;;;;;;;18.53;16.03;;;11.30;99.90;;;10.20;100.00;98759.63;4980591;28;20457;-77
2021/09/01 00:31:33;;;;;;;17.20;15.40;;;11.30;99.90;;;10.25;100.00;98759.06;4973611;28;20561;-77
2021/09/01 00:34:01;;;;;;;16.70;14.93;;;11.30;99.90;;;10.26;100.00;98762.63;4982075;28;20459;-77
2021/09/01 00:36:28;;;;;;;15.20;13.70;;;11.40;99.90;;;10.33;100.00;98756.22;4955465;28;20461;-78
2021/09/01 00:38:56;;;;;;;19.00;13.10;;;11.40;99.90;;;10.29;100.00;98762.22;4973961;28;20481;-78
2021/09/01 00:41:24;;;;;;;16.00;14.40;;;11.40;99.90;;;10.26;100.00;98759.91;4973992;28;20454;-78
2021/09/01 00:43:53;;;;;;;14.40;12.90;;;11.40;99.90;;;10.24;100.00;98740.38;4972235;28;20482;-78
2021/09/01 00:46:20;;;;;;;14.10;12.37;;;11.40;99.90;;;10.21;100.00;98761.31;4955825;28;20470;-79
2021/09/01 00:48:48;;;;;;;20.17;13.80;;;11.40;99.90;;;10.17;100.00;98759.22;4976994;28;20808;-78
2021/09/01 00:51:17;;;;;;;14.40;12.00;;;11.40;99.90;;;10.19;100.00;98755.28;4993634;28;20491;-77
2021/09/01 00:53:48;;;;;;;12.80;11.50;;;11.30;99.90;;;10.13;100.00;98752.50;4976998;28;20491;-78
2021/09/01 00:56:18;;;;;;;13.50;12.10;;;11.30;99.90;;;9.92;100.00;98732.63;4984889;28;20459;-78
2021/09/01 00:58:47;;;;;;;13.30;12.10;;;11.30;99.90;;;9.79;100.00;98703.66;4963309;28;20591;-78
2021/09/01 01:01:16;;;;;;;13.00;11.77;;;11.20;99.90;;;10.02;100.00;98743.94;4965128;28;20796;-78
2021/09/01 01:03:47;;;;;;;13.70;12.40;;;11.20;99.90;;;9.91;100.00;98733.66;4982792;28;20945;-77
2021/09/01 01:06:19;;;;;;;13.30;11.60;;;11.20;99.90;;;10.04;100.00;98759.91;4965421;28;20856;-78
2021/09/01 01:08:47;;;;;;;13.30;11.33;;;11.20;99.90;;;9.97;100.00;98767.94;4965805;28;20557;-78
2021/09/01 01:11:15;;;;;;;16.00;12.60;;;11.10;99.90;;;9.87;100.00;98757.47;4974799;28;20482;-77
2021/09/01 01:13:44;;;;;;;19.13;12.63;;;11.00;99.90;;;9.87;100.00;98762.06;4982995;28;20457;-79
2021/09/01 01:16:13;;;;;;;13.60;12.33;;;11.00;99.90;;;9.84;100.00;98773.22;4977990;28;20461;-78
2021/09/01 01:18:41;;;;;;;13.67;12.27;;;11.00;99.90;;;9.66;100.00;98741.28;4987302;28;20480;-78
2021/09/01 01:21:08;;;;;;;15.60;12.83;;;10.90;99.90;;;9.77;100.00;98759.66;4987810;28;20464;-78
2021/09/01 01:23:37;;;;;;;13.37;11.97;;;10.90;99.90;;;9.69;100.00;98757.09;4979499;28;20555;-78
2021/09/01 01:26:07;;;;;;;15.50;12.90;;;10.90;99.90;;;9.73;100.00;98761.06;4970511;28;20458;-78
2021/09/01 01:28:34;;;;;;;14.53;13.13;;;10.90;99.90;;;9.54;100.00;98739.09;4981556;28;20463;-78
2021/09/01 01:31:01;;;;;;;14.40;13.10;;;10.80;99.90;;;9.66;100.00;98768.28;4985618;28;20922;-78
2021/09/01 01:33:28;;;;;;;14.10;12.60;;;10.80;99.90;;;9.63;100.00;98759.53;4983069;28;20466;-78
2021/09/01 01:36:03;;;;;;;13.90;12.20;;;10.80;99.90;;;9.43;100.00;98744.97;4984932;28;21216;-79
2021/09/01 01:38:31;;;;;;;13.07;11.77;;;10.70;99.90;;;9.53;100.00;98767.09;4966460;28;20496;-78
2021/09/01 01:40:58;;;;;;;14.13;12.50;;;10.70;99.90;;;9.55;100.00;98774.97;4984786;28;20460;-79
2021/09/01 01:43:28;;;;;;;14.33;12.53;;;10.70;99.90;;;9.54;100.00;98776.88;4966793;28;21273;-79
2021/09/01 01:45:55;;;;;;;13.67;12.30;;;10.60;99.90;;;9.49;100.00;98771.22;4984686;28;20858;-79
2021/09/01 01:48:22;;;;;;;12.60;11.40;;;10.60;99.90;;;9.44;100.00;98781.72;4966123;28;21137;-79
2021/09/01 01:50:49;;;;;;;12.97;11.60;;;10.60;99.90;;;9.34;100.00;98774.78;4967690;28;20548;-78
2021/09/01 01:53:16;;;;;;;12.83;11.53;;;10.50;99.90;;;9.37;100.00;98786.22;4965134;28;20461;-77
2021/09/01 01:55:43;;;;;;;14.07;12.57;;;10.50;99.90;;;9.30;100.00;98781.56;4983280;28;20484;-78
2021/09/01 01:58:10;;;;;;;13.47;11.83;;;10.50;99.90;;;8.95;100.00;98727.41;4979872;28;20470;-78
2021/09/01 02:00:39;;;;;;;13.13;11.77;;;10.40;99.90;;;9.16;100.00;98763.53;4977229;28;20461;-78
2021/09/01 02:03:06;;;;;;;14.60;11.87;;;10.40;99.90;;;9.18;100.00;98783.06;4979300;28;20445;-78
2021/09/01 02:05:34;;;;;;;13.87;12.30;;;10.30;99.90;;;9.09;100.00;98778.81;4981945;28;20496;-78
2021/09/01 02:08:02;;;;;;;13.30;12.00;;;10.30;99.90;;;9.14;100.00;98788.00;4990005;28;20448;-78
2021/09/01 02:10:30;;;;;;;13.23;11.90;;;10.30;99.90;;;8.69;100.00;98726.03;4987961;28;20536;-78
2021/09/01 02:12:57;;;;;;;13.87;12.40;;;10.20;99.90;;;8.98;100.00;98782.81;4965161;28;20473;-78
2021/09/01 02:15:25;;;;;;;14.10;12.60;;;10.20;99.90;;;8.88;100.00;98786.59;4977131;28;20497;-78
2021/09/01 02:17:54;;;;;;;13.80;12.50;;;10.10;99.90;;;8.97;100.00;98800.81;4968532;28;20454;-78
2021/09/01 02:20:21;;;;;;;12.93;11.63;;;10.10;99.90;;;8.90;100.00;98792.66;4973248;28;20496;-78
2021/09/01 02:22:48;;;;;;;15.17;12.03;;;10.00;99.90;;;8.87;100.00;98789.47;4985385;28;20560;-78
2021/09/01 02:25:17;;;;;;;15.03;13.50;;;10.00;99.90;;;8.81;100.00;98793.78;4981136;28;20472;-78
2021/09/01 02:27:44;;;;;;;14.53;13.13;;;10.00;99.90;;;8.63;100.00;98772.56;4968051;28;20544;-78
2021/09/01 02:30:13;;;;;;;14.57;12.93;;;9.90;99.90;;;8.54;100.00;98749.41;4988320;28;20493;-78
2021/09/01 02:32:40;;;;;;;13.90;12.50;;;9.90;99.90;;;8.92;100.00;98795.16;4983111;28;20461;-78
2021/09/01 02:35:11;;;;;;;16.53;12.50;;;10.00;99.90;;;8.63;100.00;98751.03;4960552;28;20541;-78
2021/09/01 02:37:41;;;;;;;13.27;11.97;;;10.00;99.90;;;8.75;100.00;98781.88;4959754;28;20476;-78
2021/09/01 02:40:10;;;;;;;13.47;12.17;;;10.00;99.90;;;8.72;100.00;98795.72;4981546;28;20875;-79
2021/09/01 02:42:39;;;;;;;14.17;12.77;;;9.90;99.90;;;8.49;100.00;98761.56;4981730;28;20515;-78
2021/09/01 02:45:07;;;;;;;15.33;13.20;;;9.80;99.90;;;8.58;100.00;98783.06;4937252;28;20460;-78
2021/09/01 02:47:35;;;;;;;15.90;13.53;;;9.80;99.90;;;8.55;100.00;98794.19;4980564;28;20453;-79
2021/09/01 02:50:05;;;;;;;15.83;12.83;;;9.70;99.90;;;8.52;100.00;98794.56;4980889;28;20456;-78
2021/09/01 02:52:34;;;;;;;16.43;13.33;;;9.70;99.90;;;8.46;100.00;98796.94;4972326;28;20466;-79
2021/09/01 02:55:01;;;;;;;16.20;13.67;;;9.70;99.90;;;8.43;100.00;98797.31;4960530;28;20828;-79
2021/09/01 02:57:28;;;;;;;14.97;13.40;;;9.80;99.90;;;8.38;100.00;98798.88;4982349;28;20457;-78
2021/09/01 02:59:55;;;;;;;15.67;13.90;;;9.60;99.90;;;8.45;100.00;98811.44;4949334;28;20867;-79
2021/09/01 03:02:22;;;;;;;15.33;13.17;;;9.70;99.90;;;8.37;100.00;98798.03;4984131;28;20457;-78
2021/09/01 03:04:49;;;;;;;16.57;14.23;;;9.70;99.90;;;8.37;100.00;98800.72;4979542;28;20541;-78
2021/09/01 03:07:16;;;;;;;18.37;14.53;;;9.60;99.90;;;8.42;100.00;98806.41;4983370;28;20464;-78
2021/09/01 03:09:45;;;;;;;17.23;14.13;;;9.60;99.90;;;8.41;100.00;98812.78;4978057;28;20468;-78
2021/09/01 03:12:12;;;;;;;19.83;15.40;;;9.60;99.90;;;8.35;100.00;98811.69;4963260;28;20517;-78
2021/09/01 03:14:40;;;;;;;18.23;14.37;;;9.60;99.90;;;8.28;100.00;98801.81;4977823;28;20446;-80
2021/09/01 03:17:07;;;;;;;15.30;13.80;;;9.50;99.90;;;8.38;100.00;98810.47;4984786;28;20453;-79
2021/09/01 03:19:35;;;;;;;16.40;13.40;;;9.50;99.90;;;8.57;100.00;98808.31;4960474;28;20473;-78
2021/09/01 03:22:03;;;;;;;12.87;11.57;;;9.70;99.90;;;8.57;100.00;98803.75;4984080;28;20463;-78
2021/09/01 03:24:30;;;;;;;16.80;13.47;;;9.80;99.90;;;8.38;100.00;98797.00;4987473;28;20457;-78
2021/09/01 03:26:59;;;;;;;16.20;14.00;;;9.70;99.90;;;8.42;100.00;98810.94;4982754;28;20491;-79
2021/09/01 03:29:29;;;;;;;14.40;12.90;;;9.60;99.90;;;8.39;100.00;98809.44;4968480;28;20449;-79
2021/09/01 03:31:58;;;;;;;16.87;13.90;;;9.60;99.90;;;8.36;100.00;98807.13;4971058;28;20456;-79
2021/09/01 03:34:25;;;;;;;13.47;12.00;;;9.50;99.90;;;8.33;100.00;98820.94;4983625;28;20536;-79
2021/09/01 03:36:52;;;;;;;15.20;13.60;;;9.60;99.90;;;8.18;100.00;98793.97;4966049;28;20538;-79
2021/09/01 03:39:19;;;;;;;14.63;13.07;;;9.50;99.90;;;8.33;100.00;98819.09;4979888;28;20508;-79
2021/09/01 03:41:46;;;;;;;14.60;13.20;;;9.50;99.90;;;8.28;100.00;98804.50;4961530;28;20533;-79
2021/09/01 03:44:15;;;;;;;14.17;12.77;;;9.60;99.90;;;8.28;100.00;98821.50;4964941;28;20500;-78
2021/09/01 03:46:44;;;;;;;14.23;12.90;;;9.50;99.90;;;8.12;100.00;98802.78;4970776;28;20562;-79
2021/09/01 03:49:16;;;;;;;16.23;12.50;;;9.50;99.90;;;8.08;100.00;98799.59;4975483;28;20537;-78
2021/09/01 03:51:43;;;;;;;13.50;12.17;;;9.40;99.90;;;8.24;100.00;98817.50;4974949;28;20454;-78
2021/09/01 03:54:11;;;;;;;12.83;11.63;;;9.40;99.90;;;8.14;100.00;98804.28;4981931;28;20473;-79
2021/09/01 03:56:38;;;;;;;18.63;13.70;;;9.50;99.90;;;8.26;100.00;98825.38;4961458;28;20466;-78
2021/09/01 03:59:06;;;;;;;11.90;10.73;;;9.50;99.90;;;8.22;100.00;98836.50;4976460;28;20497;-78
2021/09/01 04:01:35;;;;;;;12.60;11.43;;;9.40;99.90;;;8.10;100.00;98813.72;4979668;28;20982;-78
2021/09/01 04:04:03;;;;;;;15.00;11.47;;;9.40;99.90;;;7.98;100.00;98807.09;4959374;28;20476;-78
2021/09/01 04:06:30;;;;;;;13.97;12.27;;;9.30;99.90;;;8.14;100.00;98831.19;4979851;28;21197;-79
2021/09/01 04:08:59;;;;;;;13.40;12.03;;;9.30;99.90;;;8.17;100.00;98828.16;4959902;28;20466;-79
2021/09/01 04:11:26;;;;;;;12.63;11.43;;;9.30;99.90;;;7.92;100.00;98800.59;4961715;28;20473;-79
2021/09/01 04:13:54;;;;;;;13.90;12.00;;;9.30;99.90;;;8.23;100.00;98832.78;4939650;28;20473;-79
2021/09/01 04:16:21;;;;;;;13.97;12.50;;;9.40;99.90;;;7.93;100.00;98765.41;4964940;28;20453;-79
2021/09/01 04:18:49;;;;;;;13.93;12.50;;;9.50;99.90;;;8.39;100.00;98838.25;4979826;28;20968;-78
2021/09/01 04:21:16;;;;;;;12.83;11.63;;;9.60;99.90;;;8.20;100.00;98825.09;4977386;28;20471;-79
2021/09/01 04:23:43;;;;;;;12.50;11.20;;;9.60;99.90;;;8.35;100.00;98848.53;4985421;28;20964;-79
2021/09/01 04:26:13;;;;;;;16.93;13.37;;;9.60;99.90;;;8.34;100.00;98834.25;4976720;28;20488;-80
2021/09/01 04:28:40;;;;;;;16.97;13.90;;;9.70;99.90;;;8.20;100.00;98813.50;4978890;28;20461;-79
2021/09/01 04:31:07;;;;;;;14.70;12.97;;;9.70;99.90;;;8.39;100.00;98838.25;4975152;28;20467;-79
2021/09/01 04:33:35;;;;;;;17.13;13.50;;;9.80;99.90;;;8.59;100.00;98854.78;4980753;28;20460;-78
2021/09/01 04:36:04;;;;;;;15.97;12.97;;;9.80;99.90;;;8.60;100.00;98841.09;4985498;28;20449;-79
2021/09/01 04:38:31;;;;;;;15.63;13.80;;;9.90;99.90;;;8.56;100.00;98823.66;4978717;28;21031;-78
2021/09/01 04:40:58;;;;;;;17.00;13.43;;;10.00;99.90;;;8.72;100.00;98827.19;4961206;28;20472;-79
2021/09/01 04:43:25;;;;;;;15.87;14.17;;;10.00;99.90;;;8.86;100.00;98853.34;4960276;28;20480;-80
2021/09/01 04:45:52;;;;;;;17.17;13.70;;;10.10;99.90;;;8.93;100.00;98845.34;4977123;28;20461;-79
2021/09/01 04:48:20;;;;;;;17.77;14.43;;;10.10;99.90;;;9.04;100.00;98852.97;4961789;28;20463;-79
2021/09/01 04:50:47;;;;;;;16.63;13.83;;;10.20;99.90;;;9.13;100.00;98845.66;4975489;28;20541;-79
2021/09/01 04:53:15;;;;;;;14.90;13.40;;;10.30;99.90;;;9.01;100.00;98826.38;4983588;28;20497;-78
2021/09/01 04:55:42;;;;;;;14.90;13.20;;;10.30;99.90;;;9.19;100.00;98847.59;4960336;28;20852;-78
2021/09/01 04:58:10;;;;;;;17.40;14.00;;;10.40;99.90;;;9.28;100.00;98859.09;4979705;28;21913;-78
2021/09/01 05:00:37;;;;;;;17.10;14.60;;;10.50;99.90;;;9.31;100.00;98845.25;4960320;28;20473;-79
2021/09/01 05:03:05;;;;;;;18.57;13.87;;;10.50;99.90;;;9.37;100.00;98848.22;4972272;28;20472;-78
2021/09/01 05:05:32;;;;;;;19.93;14.87;;;10.60;99.90;;;9.57;100.00;98857.41;4977316;28;20777;-78
2021/09/01 05:07:59;;;;;;;19.60;15.60;;;10.70;99.90;;;9.52;100.00;98838.25;4978240;28;20485;-78
2021/09/01 05:10:28;;;;;;;31.80;17.40;;;10.80;99.90;;;9.75;100.00;98864.25;4963433;28;20581;-78
2021/09/01 05:12:55;;;;;;;20.00;16.80;;;10.90;99.90;;;9.78;100.00;98858.47;4958572;28;20472;-78
2021/09/01 05:15:23;;;;;;;20.47;16.57;;;11.00;99.90;;;9.73;100.00;98848.28;4948242;28;20460;-78
2021/09/01 05:17:50;;;;;;;26.90;17.80;;;11.00;99.90;;;9.96;100.00;98865.34;4988991;28;20457;-78
2021/09/01 05:20:17;;;;;;;29.60;17.73;;;11.10;99.90;;;10.10;100.00;98871.72;4977387;28;20480;-78
2021/09/01 05:22:47;;;;;;;23.90;17.10;;;11.20;99.90;;;9.95;100.00;98852.88;4980936;28;20455;-78
2021/09/01 05:25:18;;;;;;;47.13;17.77;;;11.20;99.90;;;10.08;100.00;98874.59;4978863;28;20469;-78
2021/09/01 05:27:51;;;;;;;20.40;15.20;;;11.30;99.90;;;10.21;100.00;98892.81;4979671;28;20535;-78
2021/09/01 05:30:20;;;;;;;19.73;16.57;;;11.40;99.90;;;10.34;100.00;98882.16;4974360;28;20521;-77
2021/09/01 05:32:50;;;;;;;20.97;16.77;;;11.50;99.90;;;10.45;100.00;98871.88;4980777;28;20491;-78
2021/09/01 05:35:18;;;;;;;21.33;15.40;;;11.60;99.90;;;10.35;100.00;98891.06;4959827;28;20468;-78
2021/09/01 05:37:46;;;;;;;19.40;16.13;;;11.60;99.90;;;10.53;100.00;98887.13;4988486;28;20480;-79
2021/09/01 05:40:16;;;;;;;20.13;16.37;;;11.70;99.90;;;10.68;100.00;98887.88;4950022;28;20571;-78
2021/09/01 05:42:43;;;;;;;27.27;16.47;;;11.70;99.90;;;10.93;100.00;98889.34;4965250;28;20481;-79
2021/09/01 05:45:12;;;;;;;35.23;15.87;;;11.90;99.90;;;10.82;100.00;98893.41;4986549;28;20463;-78
2021/09/01 05:47:39;;;;;;;28.80;16.23;;;12.00;99.90;;;10.87;100.00;98893.66;4983960;28;20453;-78
2021/09/01 05:50:08;;;;;;;70.10;19.67;;;12.00;99.90;;;10.86;100.00;98876.59;4981306;28;20438;-79
2021/09/01 05:52:35;;;;;;;19.17;15.50;;;12.00;99.90;;;11.12;100.00;98902.16;4984841;28;20504;-77
2021/09/01 05:55:09;;;;;;;24.53;17.73;;;12.20;99.90;;;11.25;100.00;98887.88;4995333;28;20478;-78
2021/09/01 05:57:38;;;;;;;65.43;17.80;;;12.40;99.90;;;11.39;100.00;98890.66;4981913;28;20456;-77
2021/09/01 06:00:11;;;;;;;56.10;18.27;;;12.40;99.90;;;11.32;100.00;98885.22;4960945;28;20499;-77
2021/09/01 06:02:51;;;;;;;39.83;15.60;;;12.40;99.90;;;11.33;100.00;98893.16;4984477;28;20554;-77
2021/09/01 06:05:22;;;;;;;31.07;17.30;;;12.50;99.90;;;11.45;100.00;98900.72;4995487;28;20456;-78
2021/09/01 06:07:55;;;;;;;49.80;16.57;;;12.50;99.90;;;11.33;100.00;98882.31;4987240;28;20474;-78
2021/09/01 06:10:28;;;;;;;97.10;18.60;;;12.60;99.90;;;11.49;100.00;98896.56;4966454;28;20873;-78
2021/09/01 06:12:57;;;;;;;52.30;17.33;;;12.60;99.90;;;11.55;100.00;98894.94;4962949;28;20461;-77
2021/09/01 06:15:25;;;;;;;54.77;15.33;;;12.60;99.90;;;11.54;100.00;98882.44;4967464;28;20475;-78
2021/09/01 06:17:54;;;;;;;55.57;16.00;;;12.60;99.90;;;11.15;100.00;98865.78;4983444;28;20457;-77
2021/09/01 06:20:21;;;;;;;63.50;15.27;;;12.60;99.90;;;11.59;100.00;98902.44;4962300;28;20500;-78
2021/09/01 06:22:49;;;;;;;35.33;15.27;;;12.70;99.90;;;11.70;100.00;98889.38;4974133;28;20517;-79
2021/09/01 06:25:16;;;;;;;40.47;14.63;;;12.80;99.90;;;11.62;100.00;98891.22;4964706;28;20779;-79
2021/09/01 06:27:44;;;;;;;96.60;17.87;;;12.90;99.90;;;11.74;100.00;98886.06;4963247;28;20489;-78
2021/09/01 06:30:13;;;;;;;39.93;16.20;;;12.90;99.90;;;11.83;100.00;98902.97;4976788;28;20473;-78
2021/09/01 06:32:40;;;;;;;33.17;13.23;;;13.00;99.90;;;12.33;99.27;98901.88;4979339;28;20465;-78
2021/09/01 06:35:11;;;;;;;25.23;12.60;;;13.30;99.40;;;12.43;95.93;98902.34;4992192;28;20559;-78
2021/09/01 06:37:39;;;;;;;37.73;15.27;;;13.40;94.70;;;12.25;97.36;98888.56;4991855;28;20507;-79
2021/09/01 06:40:08;;;;;;;37.73;15.50;;;13.40;96.30;;;12.36;95.98;98912.34;4973538;28;20544;-79
2021/09/01 06:42:38;;;;;;;47.73;15.63;;;13.50;94.70;;;12.29;95.82;98911.47;4992145;28;20581;-79
2021/09/01 06:45:06;;;;;;;47.57;15.83;;;13.30;95.00;;;12.07;95.51;98876.44;4984099;28;20853;-78
2021/09/01 06:47:40;;;;;;;46.70;14.77;;;13.40;95.00;;;12.33;95.42;98902.75;4978421;28;20485;-79
2021/09/01 06:50:19;;;;;;;43.80;14.57;;;13.50;95.20;;;12.41;96.08;98920.69;4989922;28;20445;-79
2021/09/01 06:52:49;;;;;;;40.07;15.10;;;13.40;95.50;;;12.37;95.06;98915.88;4970519;28;20481;-78
2021/09/01 06:55:16;;;;;;;29.70;14.30;;;13.40;94.70;;;12.65;95.44;98920.31;4980063;28;20504;-79
2021/09/01 06:57:44;;;;;;;33.43;15.20;;;13.60;94.90;;;12.79;93.49;98929.28;4949005;28;20455;-78
2021/09/01 07:00:15;;;;;;;18.70;14.70;;;13.80;93.10;;;13.00;94.76;98926.38;4980982;28;20487;-78
2021/09/01 07:02:42;;;;;;;25.50;14.80;;;14.00;94.00;;;13.17;90.87;98934.09;4979335;28;21023;-78
2021/09/01 07:05:14;;;;;;;50.53;16.80;;;14.20;91.50;;;13.20;91.26;98930.13;4979523;28;20945;-79
2021/09/01 07:07:42;;;;;;;32.00;16.20;;;14.30;90.90;;;13.17;91.83;98934.91;4984187;28;20449;-78
2021/09/01 07:10:12;;;;;;;24.73;16.10;;;14.30;91.00;;;13.44;90.84;98923.22;4981713;28;20467;-79
2021/09/01 07:12:40;;;;;;;21.50;17.27;;;14.40;91.00;;;13.54;88.94;98922.78;4959786;28;20465;-79
2021/09/01 07:15:09;;;;;;;24.30;17.07;;;14.60;90.00;;;13.41;89.41;98934.44;4965758;28;20530;-79
2021/09/01 07:17:38;;;;;;;25.23;17.30;;;14.40;90.00;;;13.58;89.19;98935.72;4979291;28;20458;-78
2021/09/01 07:20:09;;;;;;;22.00;18.30;;;14.50;90.30;;;13.55;89.09;98946.97;4987785;28;20569;-79
2021/09/01 07:22:38;;;;;;;20.93;16.90;;;14.50;90.20;;;13.94;87.98;98938.94;4975747;28;20520;-78
2021/09/01 07:25:08;;;;;;;21.50;17.53;;;14.80;89.90;;;14.25;85.71;98917.50;4982860;28;20965;-79
2021/09/01 07:27:36;;;;;;;20.50;15.93;;;15.10;87.80;;;14.59;84.61;98940.72;4965840;28;20949;-78
2021/09/01 07:30:05;;;;;;;18.57;15.87;;;15.50;87.00;;;14.80;83.63;98943.31;4964161;28;20449;-78
2021/09/01 07:32:33;;;;;;;21.03;16.27;;;15.70;85.70;;;14.72;82.58;98907.16;4967732;28;20453;-79
2021/09/01 07:35:00;;;;;;;17.63;15.83;;;15.90;83.90;;;14.75;82.10;98933.09;4984937;28;20459;-79
2021/09/01 07:37:28;;;;;;;20.80;16.50;;;16.00;82.70;;;15.05;81.06;98934.31;4981957;28;20476;-81
2021/09/01 07:39:58;;;;;;;20.23;18.10;;;16.10;82.30;;;15.09;79.98;98930.09;4979028;28;20470;-79
2021/09/01 07:42:26;;;;;;;18.77;15.70;;;16.30;80.90;;;15.52;78.51;98939.34;4983052;28;20454;-80
2021/09/01 07:44:53;;;;;;;22.10;17.80;;;16.40;80.50;;;15.57;78.22;98955.84;4983197;28;20516;-78
2021/09/01 07:47:20;;;;;;;18.70;16.70;;;16.50;79.80;;;15.09;79.50;98916.50;4967544;28;20536;-79
2021/09/01 07:49:47;;;;;;;20.20;17.93;;;16.50;79.80;;;15.99;77.44;98964.22;4979656;28;20449;-78
2021/09/01 07:52:14;;;;;;;19.60;16.80;;;16.90;79.00;;;16.24;76.27;98960.56;4993270;28;20461;-79
2021/09/01 07:54:44;;;;;;;19.23;15.50;;;17.20;78.10;;;15.60;76.42;98932.78;4965438;28;20465;-80
2021/09/01 07:57:14;;;;;;;18.53;16.63;;;17.20;76.00;;;15.92;75.68;98940.81;4978488;28;20460;-79
2021/09/01 07:59:43;;;;;;;23.10;15.50;;;17.30;75.70;;;15.49;76.93;98973.28;4985207;28;20480;-79
2021/09/01 08:02:12;;;;;;;19.47;17.17;;;17.00;75.10;;;15.95;75.68;98970.34;4979747;28;20493;-79
2021/09/01 08:04:39;;;;;;;17.60;15.80;;;17.00;75.60;;;16.11;75.92;98972.44;4981650;28;20462;-80
2021/09/01 08:07:06;;;;;;;18.20;16.27;;;17.20;76.00;;;16.05;74.44;98962.47;4964902;28;20518;-79
2021/09/01 08:09:34;;;;;;;17.90;15.87;;;17.20;75.10;;;16.13;74.16;98969.50;4963668;28;20461;-79
2021/09/01 08:12:01;;;;;;;18.47;16.50;;;17.30;74.40;;;15.87;76.38;98974.16;4964493;28;20485;-79
2021/09/01 08:14:30;;;;;;;20.17;18.13;;;17.20;74.80;;;15.79;76.13;98986.19;4960940;28;20991;-79
2021/09/01 08:16:57;;;;;;;22.70;18.30;;;16.90;75.60;;;15.30;78.94;98978.72;4958738;28;20971;-79
2021/09/01 08:19:24;;;;;;;19.27;17.10;;;16.60;76.70;;;15.26;79.05;98991.13;4985716;28;20524;-79
2021/09/01 08:21:51;;;;;;;21.47;17.90;;;16.40;77.30;;;15.17;79.17;98989.72;4985177;28;21185;-79
2021/09/01 08:24:18;;;;;;;25.47;20.43;;;16.20;77.90;;;15.07;80.39;98983.91;4962378;28;20464;-79
2021/09/01 08:26:45;;;;;;;23.07;20.27;;;16.10;78.80;;;14.80;81.09;98974.06;4982931;28;20481;-79
2021/09/01 08:29:19;;;;;;;23.13;20.23;;;16.00;78.60;;;14.75;81.38;98992.09;4979055;28;20957;-79
2021/09/01 08:31:48;;;;;;;23.90;20.40;;;15.90;79.30;;;14.56;82.12;98991.97;4980500;28;20536;-79
2021/09/01 08:34:15;;;;;;;22.10;19.70;;;15.70;80.00;;;14.51;82.13;98975.47;4976555;28;20548;-79
2021/09/01 08:36:44;;;;;;;24.83;21.50;;;15.70;80.30;;;14.63;82.98;99000.91;4958594;28;20524;-79
2021/09/01 08:39:11;;;;;;;22.63;20.47;;;15.70;80.70;;;14.69;82.27;98980.16;4977724;28;20496;-79
2021/09/01 08:41:39;;;;;;;25.03;22.43;;;15.80;81.00;;;14.91;82.90;98993.47;4962713;28;20544;-79
2021/09/01 08:44:12;;;;;;;27.00;21.90;;;15.90;81.50;;;14.92;81.58;98995.94;4982928;28;20469;-78
2021/09/01 08:46:39;;;;;;;25.40;21.33;;;16.00;80.80;;;14.98;81.48;98981.47;4964567;28;20555;-79
2021/09/01 08:49:10;;;;;;;21.70;19.10;;;16.00;80.70;;;14.99;82.61;98994.03;4977777;28;20487;-79
2021/09/01 08:51:37;;;;;;;21.57;19.37;;;16.10;81.30;;;15.02;81.99;98987.31;4986394;28;20453;-79
2021/09/01 08:54:05;;;;;;;25.77;20.10;;;16.10;80.90;;;15.00;82.05;98984.81;4987017;28;20461;-80
2021/09/01 08:56:33;;;;;;;23.17;19.47;;;16.10;81.30;;;15.13;81.89;98977.59;4982024;28;20457;-79
2021/09/01 08:59:00;;;;;;;22.73;19.20;;;16.20;81.30;;;15.31;79.82;98993.13;4980994;28;20475;-79
2021/09/01 09:01:43;;;;;;;19.70;17.70;;;16.30;80.20;;;15.15;80.39;98984.47;4975463;28;20488;-79
2021/09/01 09:04:21;;;;;;;21.70;17.13;;;16.30;79.70;;;15.21;81.38;98974.59;4956290;28;20545;-79
2021/09/01 09:06:58;;;;;;;20.80;18.53;;;16.30;79.90;;;15.17;80.31;98976.09;4982582;28;20467;-79
2021/09/01 09:09:28;;;;;;;19.40;17.50;;;16.30;79.60;;;15.41;80.99;98981.78;4982967;28;20544;-80
2021/09/01 09:12:00;;;;;;;24.37;17.17;;;16.40;80.60;;;15.43;80.42;98979.66;4977165;28;20449;-80
2021/09/01 09:14:32;;;;;;;20.50;16.67;;;16.50;80.00;;;15.49;80.08;98991.53;4973410;28;20453;-80
2021/09/01 09:17:07;;;;;;;21.03;15.63;;;16.50;79.60;;;15.67;79.39;98977.09;4970660;28;20453;-79
2021/09/01 09:19:49;;;;;;;16.73;15.03;;;16.70;79.40;;;15.75;79.27;98979.53;4976176;28;20464;-79
2021/09/01 09:22:24;;;;;;;17.50;15.80;;;16.80;79.10;;;15.81;76.78;98984.06;4984169;28;20477;-79
2021/09/01 09:25:14;;;;;;;15.57;14.07;;;16.80;77.20;;;15.85;74.84;98979.88;4987795;28;20544;-79
2021/09/01 09:27:46;;;;;;;18.50;15.00;;;16.90;75.60;;;15.96;75.13;98982.91;4985739;28;20459;-80
2021/09/01 09:30:42;;;;;;;13.50;12.10;;;17.00;75.60;;;15.96;72.61;98991.94;4988382;28;20453;-79
2021/09/01 09:33:13;;;;;;;13.07;11.67;;;17.00;73.20;;;15.90;72.86;98997.44;4980752;28;20466;-79
2021/09/01 09:36:03;;;;;;;13.40;11.60;;;17.00;73.30;;;15.89;74.27;98973.94;4981592;28;20493;-79
2021/09/01 09:38:38;;;;;;;13.80;11.53;;;17.00;74.30;;;16.07;73.48;98997.66;4978173;28;20481;-80
2021/09/01 09:41:08;;;;;;;14.67;10.80;;;17.10;73.90;;;16.26;72.68;98995.75;4983206;28;20523;-79
2021/09/01 09:43:36;;;;;;;12.80;11.50;;;17.20;73.20;;;16.17;72.19;98970.69;4981613;28;20485;-79
2021/09/01 09:46:11;;;;;;;14.07;12.37;;;17.20;72.50;;;16.47;72.42;98980.81;4986237;28;20533;-80
2021/09/01 09:48:48;;;;;;;10.63;9.53;;;17.40;73.00;;;16.45;70.51;98969.31;4975039;28;20452;-79
2021/09/01 09:51:18;;;;;;;11.97;8.17;;;17.50;72.00;;;16.64;67.96;98959.19;4989026;28;20466;-78
2021/09/01 09:53:51;;;;;;;9.27;7.70;;;17.70;69.50;;;16.82;67.09;98982.00;4973759;28;20461;-79
2021/09/01 09:56:21;;;;;;;9.80;8.80;;;17.80;68.90;;;16.85;67.48;98981.53;4977026;28;20457;-78
2021/09/01 09:58:52;;;;;;;9.83;8.93;;;17.80;68.80;;;16.87;67.87;98981.31;4983932;28;20449;-79
2021/09/01 10:01:22;;;;;;;8.70;7.80;;;17.90;68.60;;;17.05;66.78;98966.75;4982682;28;20549;-79
2021/09/01 10:03:51;;;;;;;7.40;6.60;;;18.10;68.00;;;17.35;64.74;98965.84;4995952;28;20457;-79
2021/09/01 10:06:24;;;;;;;8.10;6.33;;;18.30;66.90;;;17.47;63.20;98963.13;4988631;28;20489;-79
2021/09/01 10:08:53;;;;;;;6.70;6.10;;;18.40;65.20;;;17.37;62.64;98950.91;4973898;28;20450;-79
2021/09/01 10:11:23;;;;;;;6.93;5.50;;;18.40;64.30;;;17.27;62.07;98961.56;4983676;28;20485;-79
2021/09/01 10:13:54;;;;;;;8.80;6.40;;;18.40;62.80;;;17.60;61.95;98962.91;4983960;28;20461;-79
2021/09/01 10:16:32;;;;;;;7.23;6.53;;;18.50;63.80;;;17.93;61.79;98963.31;4975694;28;20453;-79